Decoded Metar for GCLP (LAS PALMAS in SPAIN) (IATA:LPA) | Meteo·Mobile Aviation Weather
aviador You're here:

GCLP Decoded Metar

LAS PALMAS in SPAIN
Report Time2019-01-23 06:30:00
UTC Time2019-01-23 06:57:38
Flight Rules vfr VFR
Wind020° at 16 kt
W.Decomp.*RWY 03: 15.9 kt HW 1.4 kt LCW
W.Rank020° ranks 3
Current wind is below 020° avg. (18.3)
Visibility9999 m
Phenomena:N/A
Clouds:Scattered 035 Hf
Broken 043 Hf
Expected CloudBase > 2,800 ft AGL from Temp-Dew spread
Ceiling4,300 ft
Temp17°C (ISA +2)
Dew Point10°C (64% RH)
AAT11.3°C
QNH1025 hPa
Density Alt98 ft
Elevation82 ft
Report Wrong Elevation
Raw Report
GCLP 230630Z 02016KT 9999 SCT035 BKN043 17/10 Q1025 NOSIG=

Extra information for GCLP:More info

Metar Taf Metar & Taf Last 4 Metars F.Rules Stats Wind Profile Meteogram Temp Stats Airport Information Weather charts Add Link Nearby VenuesMetar ALERT Operation Metar Decoded Social comments